Time;durP1;ratioP1;P1;durP2;ratioP2;P2;SDS_P1;SDS_P2;PMS_P1;PMS_P2;Temp;Humidity;BMP_temperature;BMP_pressure;BME280_temperature;BME280_humidity;BME280_pressure;Samples;Min_cycle;Max_cycle;Signal;HPM_P1;HPM_P2
2022/09/03 00:00:29;;;;;;;5.97;1.63;;;17.30;87.60;;;;;;5009159;28;20045;-83
2022/09/03 00:03:38;;;;;;;5.65;1.00;;;17.30;88.30;;;;;;5008964;28;20537;-82
2022/09/03 00:06:42;;;;;;;3.15;1.17;;;17.20;89.20;;;;;;5009715;28;20096;-81
2022/09/03 00:09:42;;;;;;;5.03;1.30;;;17.10;90.10;;;;;;5008164;28;20053;-82
2022/09/03 00:12:33;;;;;;;4.90;1.13;;;17.00;90.60;;;;;;5010352;28;20046;-83
2022/09/03 00:15:22;;;;;;;5.43;1.30;;;17.00;90.80;;;;;;5008583;28;20056;-82
2022/09/03 00:18:15;;;;;;;6.10;1.30;;;16.90;91.10;;;;;;5010047;28;20540;-82
2022/09/03 00:21:07;;;;;;;4.85;1.50;;;16.80;91.50;;;;;;5012329;28;20054;-80
2022/09/03 00:23:56;;;;;;;3.72;1.40;;;16.80;91.70;;;;;;5013716;28;20049;-87
2022/09/03 00:26:50;;;;;;;2.28;0.90;;;16.70;92.00;;;;;;5019173;28;20160;-80
2022/09/03 00:29:49;;;;;;;2.85;1.40;;;16.70;92.40;;;;;;5015105;28;20501;-82
2022/09/03 00:32:54;;;;;;;3.42;1.15;;;16.60;92.60;;;;;;5032441;28;20084;-86
2022/09/03 00:36:00;;;;;;;4.30;1.00;;;16.50;92.80;;;;;;5035134;28;20521;-86
2022/09/03 00:38:47;;;;;;;4.10;1.25;;;16.50;93.20;;;;;;5032059;28;20049;-80
2022/09/03 00:41:44;;;;;;;4.80;1.20;;;16.40;93.30;;;;;;5032437;28;20052;-82
2022/09/03 00:44:44;;;;;;;3.38;1.20;;;16.40;93.60;;;;;;5031506;28;20046;-81
2022/09/03 00:47:45;;;;;;;5.38;1.17;;;16.30;93.60;;;;;;5030755;28;20046;-84
2022/09/03 00:50:37;;;;;;;3.63;1.17;;;16.30;93.80;;;;;;5029285;28;20045;-82
2022/09/03 00:53:32;;;;;;;6.55;1.63;;;16.20;93.90;;;;;;5030067;28;20045;-85
2022/09/03 00:56:49;;;;;;;4.03;1.38;;;16.20;94.10;;;;;;5015683;28;20056;-80
2022/09/03 01:00:05;;;;;;;4.38;1.15;;;16.20;94.30;;;;;;5012369;28;20457;-86
2022/09/03 01:03:06;;;;;;;4.40;1.27;;;16.10;94.50;;;;;;5012749;28;20042;-81
2022/09/03 01:06:20;;;;;;;5.60;1.42;;;16.10;94.40;;;;;;5030216;28;20049;-82
2022/09/03 01:09:28;;;;;;;3.63;1.10;;;16.10;94.40;;;;;;5031454;28;20041;-84
2022/09/03 01:12:23;;;;;;;4.65;1.23;;;16.00;94.60;;;;;;5016037;28;20046;-80
2022/09/03 01:15:21;;;;;;;;;;;16.00;94.60;;;;;;5029236;28;20053;-83
2022/09/03 01:18:33;;;;;;;3.80;1.17;;;16.00;94.80;;;;;;5029715;28;19920;-81
2022/09/03 01:21:37;;;;;;;4.40;1.20;;;15.90;94.80;;;;;;5034125;28;20061;-83
2022/09/03 01:24:42;;;;;;;5.15;1.58;;;15.90;95.00;;;;;;5032917;28;20486;-81
2022/09/03 01:27:34;;;;;;;;;;;15.90;95.10;;;;;;5014313;28;20057;-79
2022/09/03 01:30:22;;;;;;;4.28;1.08;;;15.80;95.40;;;;;;5015215;28;19929;-81
2022/09/03 01:33:34;;;;;;;4.82;1.00;;;15.80;94.90;;;;;;5014841;28;20457;-88
2022/09/03 01:36:44;;;;;;;4.07;1.10;;;15.80;95.20;;;;;;5015956;28;20556;-81
2022/09/03 01:39:46;;;;;;;3.45;1.73;;;15.70;95.30;;;;;;5013840;28;20137;-81
2022/09/03 01:42:41;;;;;;;5.00;1.40;;;15.70;95.30;;;;;;5012857;28;20050;-82
2022/09/03 01:45:53;;;;;;;5.82;1.20;;;15.70;95.40;;;;;;5013626;28;20050;-82
2022/09/03 01:49:04;;;;;;;5.15;1.20;;;15.60;95.50;;;;;;5012810;28;20042;-79
2022/09/03 01:52:03;;;;;;;8.18;2.08;;;15.60;95.70;;;;;;5012855;28;20111;-81
2022/09/03 01:55:01;;;;;;;3.88;1.67;;;15.60;95.60;;;;;;5011930;28;20058;-84
2022/09/03 01:57:50;;;;;;;3.40;0.95;;;15.60;95.70;;;;;;5016181;28;20042;-80
2022/09/03 02:00:40;;;;;;;4.93;1.00;;;15.60;95.60;;;;;;5016349;28;20052;-85
2022/09/03 02:03:34;;;;;;;2.28;0.82;;;15.60;95.60;;;;;;5013938;28;20453;-89
2022/09/03 02:06:21;;;;;;;3.50;0.80;;;15.60;95.60;;;;;;5013292;28;20078;-84
2022/09/03 02:09:07;;;;;;;2.72;0.90;;;15.60;95.50;;;;;;5012797;28;20423;-81
2022/09/03 02:11:59;;;;;;;1.98;0.80;;;15.60;95.50;;;;;;5012327;28;20133;-83
2022/09/03 02:14:46;;;;;;;2.72;0.73;;;15.60;95.50;;;;;;5013140;28;20049;-84
2022/09/03 02:17:33;;;;;;;3.13;0.90;;;15.50;95.40;;;;;;5013270;28;20046;-80
2022/09/03 02:20:22;;;;;;;2.10;0.70;;;15.60;95.50;;;;;;5012232;28;20061;-84
2022/09/03 02:23:09;;;;;;;4.55;1.13;;;15.60;95.50;;;;;;5013208;28;20391;-80
2022/09/03 02:25:58;;;;;;;4.15;0.80;;;15.50;95.50;;;;;;5013935;28;20041;-81
2022/09/03 02:28:44;;;;;;;3.40;0.93;;;15.60;95.50;;;;;;5033288;28;20413;-82
2022/09/03 02:31:31;;;;;;;3.40;1.00;;;15.50;95.50;;;;;;5014248;28;20061;-83
2022/09/03 02:34:17;;;;;;;2.50;0.90;;;15.50;95.60;;;;;;5035607;28;20103;-80
2022/09/03 02:37:12;;;;;;;4.65;1.10;;;15.50;95.70;;;;;;5017820;28;20524;-84
2022/09/03 02:39:58;;;;;;;3.92;1.10;;;15.50;95.60;;;;;;5032114;28;20057;-80
2022/09/03 02:42:46;;;;;;;4.60;1.23;;;15.50;95.60;;;;;;5013895;28;20098;-80
2022/09/03 02:45:32;;;;;;;3.58;0.70;;;15.50;95.70;;;;;;5020508;28;20049;-84
2022/09/03 02:48:23;;;;;;;4.45;1.02;;;15.50;95.80;;;;;;5033453;28;20041;-84
2022/09/03 02:51:09;;;;;;;4.05;1.20;;;15.50;95.80;;;;;;5032580;28;20057;-78
2022/09/03 02:53:55;;;;;;;5.50;1.23;;;15.50;95.90;;;;;;5036002;28;20056;-79
2022/09/03 02:56:41;;;;;;;4.53;1.00;;;15.50;95.90;;;;;;5036942;28;20045;-80
2022/09/03 02:59:27;;;;;;;1.98;0.88;;;15.40;95.90;;;;;;5017967;28;20058;-81
2022/09/03 03:02:14;;;;;;;3.55;0.90;;;15.40;96.00;;;;;;5013649;28;20053;-85
2022/09/03 03:05:00;;;;;;;6.75;1.00;;;15.40;96.00;;;;;;5032126;28;20045;-87
2022/09/03 03:07:46;;;;;;;5.30;1.13;;;15.40;96.10;;;;;;5018934;28;20132;-83
2022/09/03 03:10:33;;;;;;;6.95;1.35;;;15.40;96.10;;;;;;5032043;28;20145;-81
2022/09/03 03:13:19;;;;;;;3.80;1.10;;;15.40;96.10;;;;;;5018446;28;20064;-83
2022/09/03 03:16:05;;;;;;;3.42;1.20;;;15.40;96.20;;;;;;5030838;28;20060;-89
2022/09/03 03:18:52;;;;;;;5.60;1.20;;;15.30;96.20;;;;;;5019352;28;20045;-87
2022/09/03 03:21:39;;;;;;;7.22;1.60;;;15.30;96.20;;;;;;5014137;28;20493;-83
2022/09/03 03:24:25;;;;;;;3.60;0.88;;;15.30;96.30;;;;;;5033705;28;20092;-82
2022/09/03 03:27:12;;;;;;;5.05;1.17;;;15.30;96.30;;;;;;5011368;28;20107;-80
2022/09/03 03:29:58;;;;;;;3.70;1.23;;;15.30;96.30;;;;;;5010932;28;20042;-89
2022/09/03 03:32:44;;;;;;;2.40;1.10;;;15.30;96.40;;;;;;4997843;28;20513;-79
2022/09/03 03:35:30;;;;;;;3.28;0.80;;;15.30;96.40;;;;;;5011683;28;20093;-79
2022/09/03 03:38:16;;;;;;;3.25;1.02;;;15.30;96.40;;;;;;5011252;28;20141;-81
2022/09/03 03:41:15;;;;;;;3.15;1.05;;;15.30;96.50;;;;;;5009558;28;20042;-80
2022/09/03 03:44:04;;;;;;;3.78;1.02;;;15.30;96.60;;;;;;5010291;28;20049;-81
2022/09/03 03:46:50;;;;;;;6.07;1.30;;;15.30;96.50;;;;;;5012025;28;20105;-80
2022/09/03 03:49:37;;;;;;;4.20;1.00;;;15.30;96.50;;;;;;5009437;28;20498;-80
2022/09/03 03:52:24;;;;;;;3.45;1.02;;;15.30;96.50;;;;;;5011152;28;20046;-81
2022/09/03 03:55:10;;;;;;;6.03;1.15;;;15.30;96.50;;;;;;4995742;28;20068;-82
2022/09/03 03:57:58;;;;;;;4.07;1.27;;;15.30;96.50;;;;;;5010537;28;20042;-80
2022/09/03 04:00:44;;;;;;;2.60;1.08;;;15.40;96.40;;;;;;5010328;28;20038;-82
2022/09/03 04:03:31;;;;;;;2.45;1.00;;;15.30;96.40;;;;;;5010243;28;20506;-82
2022/09/03 04:06:20;;;;;;;2.42;1.05;;;15.30;96.50;;;;;;5010741;28;20410;-80
2022/09/03 04:09:06;;;;;;;4.22;1.27;;;15.30;96.50;;;;;;5010108;28;20397;-84
2022/09/03 04:11:52;;;;;;;4.22;1.35;;;15.40;96.40;;;;;;5011308;28;20103;-83
2022/09/03 04:14:38;;;;;;;4.60;0.85;;;15.30;96.40;;;;;;5011096;28;20058;-81
2022/09/03 04:17:25;;;;;;;3.80;1.13;;;15.30;96.50;;;;;;5011439;28;20045;-84
2022/09/03 04:20:11;;;;;;;3.95;1.20;;;15.30;96.40;;;;;;5010496;28;20072;-82
2022/09/03 04:23:00;;;;;;;2.83;1.10;;;15.30;96.50;;;;;;5010428;28;20145;-85
2022/09/03 04:25:52;;;;;;;2.53;1.08;;;15.30;96.60;;;;;;5010624;28;20054;-82
2022/09/03 04:28:39;;;;;;;3.90;1.30;;;15.30;96.60;;;;;;5009682;28;20065;-80
2022/09/03 04:31:26;;;;;;;5.78;1.30;;;15.30;96.60;;;;;;5010266;28;20510;-82
2022/09/03 04:34:12;;;;;;;2.50;1.10;;;15.30;96.60;;;;;;5011315;28;20050;-79
2022/09/03 04:36:58;;;;;;;3.10;0.98;;;15.30;96.70;;;;;;5010472;28;20136;-87
2022/09/03 04:39:45;;;;;;;3.55;0.98;;;15.30;96.70;;;;;;5010122;28;20060;-81
2022/09/03 04:42:31;;;;;;;4.47;1.38;;;15.30;96.70;;;;;;5010146;28;20046;-83
2022/09/03 04:45:18;;;;;;;2.63;1.10;;;15.30;96.70;;;;;;5010182;28;20041;-80
2022/09/03 04:48:04;;;;;;;3.45;1.10;;;15.20;96.70;;;;;;4983899;28;20045;-84
2022/09/03 04:50:50;;;;;;;3.03;1.20;;;15.20;96.80;;;;;;5011720;28;20588;-83
2022/09/03 04:53:44;;;;;;;3.80;1.20;;;15.20;96.90;;;;;;5010541;28;20425;-78
2022/09/03 04:56:33;;;;;;;2.60;1.10;;;15.20;97.00;;;;;;5012591;28;20111;-80
2022/09/03 04:59:19;;;;;;;5.35;1.75;;;15.20;97.00;;;;;;5014605;28;20561;-84
2022/09/03 05:02:07;;;;;;;3.63;1.50;;;15.20;97.00;;;;;;5015314;28;20140;-82
2022/09/03 05:04:53;;;;;;;3.28;1.13;;;15.20;97.10;;;;;;5015664;28;20049;-80
2022/09/03 05:07:40;;;;;;;3.92;1.15;;;15.10;97.20;;;;;;5013132;28;20550;-83
2022/09/03 05:10:26;;;;;;;3.50;1.40;;;15.10;97.30;;;;;;5014672;28;20057;-79
2022/09/03 05:13:12;;;;;;;5.60;1.33;;;15.10;97.30;;;;;;4998527;28;20089;-79
2022/09/03 05:16:01;;;;;;;3.00;1.40;;;15.10;97.40;;;;;;5011915;28;20564;-80
2022/09/03 05:18:50;;;;;;;3.58;1.30;;;15.20;97.40;;;;;;5013955;28;20526;-82
2022/09/03 05:21:36;;;;;;;3.63;1.33;;;15.10;97.50;;;;;;5013685;28;20050;-79
2022/09/03 05:24:23;;;;;;;3.53;1.58;;;15.10;97.60;;;;;;5013794;28;20095;-88
2022/09/03 05:27:10;;;;;;;3.80;1.40;;;15.10;97.60;;;;;;5012848;28;20452;-80
2022/09/03 05:29:56;;;;;;;4.70;1.45;;;15.10;97.60;;;;;;5013382;28;20104;-81
2022/09/03 05:32:42;;;;;;;3.90;1.20;;;15.10;97.60;;;;;;5014003;28;20050;-81
2022/09/03 05:35:29;;;;;;;5.10;1.38;;;15.20;97.60;;;;;;5013106;28;20100;-80
2022/09/03 05:38:18;;;;;;;3.60;1.20;;;15.20;97.50;;;;;;5013720;28;20506;-79
2022/09/03 05:41:07;;;;;;;3.70;1.45;;;15.30;97.50;;;;;;5013130;28;20046;-83
2022/09/03 05:43:54;;;;;;;3.15;1.00;;;15.40;97.50;;;;;;5016043;28;20096;-78
2022/09/03 05:46:41;;;;;;;2.70;1.10;;;15.40;97.40;;;;;;5013203;28;20060;-82
2022/09/03 05:49:29;;;;;;;5.97;1.75;;;15.40;97.30;;;;;;5012280;28;20053;-83
2022/09/03 05:52:15;;;;;;;5.38;1.60;;;15.50;97.30;;;;;;5013314;28;20062;-83
2022/09/03 05:55:03;;;;;;;2.92;1.27;;;15.60;97.20;;;;;;5013825;28;20091;-81
2022/09/03 05:57:52;;;;;;;24.23;1.55;;;15.60;97.20;;;;;;5014645;28;20757;-79
2022/09/03 06:00:38;;;;;;;4.18;1.70;;;15.70;97.10;;;;;;5013360;28;20124;-83
2022/09/03 06:03:25;;;;;;;3.33;1.30;;;15.70;97.20;;;;;;5011898;28;20136;-84
2022/09/03 06:06:15;;;;;;;3.63;1.50;;;15.70;97.10;;;;;;5010391;28;20058;-82
2022/09/03 06:09:04;;;;;;;5.65;1.75;;;15.80;97.10;;;;;;5011551;28;20069;-82
2022/09/03 06:11:52;;;;;;;3.78;1.33;;;15.90;97.00;;;;;;5012631;28;20111;-77
2022/09/03 06:14:38;;;;;;;3.70;1.30;;;16.00;96.90;;;;;;5012086;28;20045;-81
2022/09/03 06:17:25;;;;;;;5.20;1.75;;;16.00;96.90;;;;;;5011711;28;20049;-80
2022/09/03 06:20:11;;;;;;;3.40;1.05;;;16.00;96.70;;;;;;5011764;28;20050;-82
2022/09/03 06:22:58;;;;;;;4.35;1.40;;;16.20;96.80;;;;;;5013235;28;20050;-81
2022/09/03 06:25:44;;;;;;;4.38;1.40;;;16.30;96.70;;;;;;5012930;28;20498;-78
2022/09/03 06:28:33;;;;;;;3.15;1.27;;;16.30;96.50;;;;;;5029898;28;20348;-79
2022/09/03 06:31:20;;;;;;;7.18;1.55;;;16.40;96.40;;;;;;5032170;28;20107;-79
2022/09/03 06:34:07;;;;;;;5.25;1.55;;;16.50;96.10;;;;;;5033518;28;20057;-79
2022/09/03 06:36:53;;;;;;;4.70;1.90;;;16.70;96.00;;;;;;5014193;28;20610;-85
2022/09/03 06:39:39;;;;;;;5.47;1.27;;;16.80;95.80;;;;;;5032718;28;20084;-81
2022/09/03 06:42:25;;;;;;;3.08;1.15;;;16.90;95.60;;;;;;5032538;28;20444;-83
2022/09/03 06:45:12;;;;;;;5.05;1.17;;;17.00;95.30;;;;;;5031725;28;20081;-80
2022/09/03 06:47:58;;;;;;;3.50;1.20;;;16.90;95.20;;;;;;5017819;28;20551;-82
2022/09/03 06:50:56;;;;;;;3.33;1.45;;;17.10;95.30;;;;;;5034435;28;20061;-83
2022/09/03 06:53:45;;;;;;;3.60;1.15;;;17.20;95.20;;;;;;5034304;28;20037;-82
2022/09/03 06:56:32;;;;;;;4.43;1.20;;;17.20;95.10;;;;;;5033279;28;20057;-89
2022/09/03 06:59:19;;;;;;;2.33;1.02;;;17.20;95.00;;;;;;5032771;28;20041;-84
2022/09/03 07:02:06;;;;;;;2.78;1.10;;;17.50;95.00;;;;;;5032060;28;20057;-81
2022/09/03 07:04:52;;;;;;;3.67;1.30;;;17.50;94.80;;;;;;5015859;28;20046;-78
2022/09/03 07:07:38;;;;;;;3.47;1.20;;;17.70;94.80;;;;;;5034881;28;20049;-82
2022/09/03 07:10:26;;;;;;;4.63;0.88;;;17.70;94.40;;;;;;5033575;28;20049;-85
2022/09/03 07:13:13;;;;;;;3.03;1.10;;;17.80;94.40;;;;;;5033087;28;20054;-84
2022/09/03 07:16:05;;;;;;;3.55;1.05;;;17.90;94.20;;;;;;5035218;28;20501;-82
2022/09/03 07:18:52;;;;;;;3.88;1.10;;;17.90;94.00;;;;;;5008166;28;20052;-81
2022/09/03 07:21:42;;;;;;;6.05;1.33;;;18.00;93.90;;;;;;5015768;28;20124;-82
2022/09/03 07:24:28;;;;;;;3.22;1.33;;;18.10;93.70;;;;;;5032327;28;20140;-83
2022/09/03 07:27:14;;;;;;;2.13;0.82;;;18.30;93.70;;;;;;5031304;28;20053;-84
2022/09/03 07:30:01;;;;;;;4.80;1.25;;;18.50;93.40;;;;;;5031387;28;20397;-82
2022/09/03 07:32:50;;;;;;;3.72;1.38;;;18.60;93.30;;;;;;5002421;28;20102;-81
2022/09/03 07:35:36;;;;;;;4.13;1.20;;;18.60;92.90;;;;;;5031808;28;20053;-86
2022/09/03 07:38:23;;;;;;;2.67;1.10;;;18.80;92.90;;;;;;5017476;28;20047;-82
2022/09/03 07:41:10;;;;;;;6.43;1.25;;;18.90;92.80;;;;;;5003153;28;20049;-80
2022/09/03 07:43:56;;;;;;;3.45;0.90;;;19.10;92.60;;;;;;4999886;28;20054;-82
2022/09/03 07:46:44;;;;;;;2.30;1.00;;;19.10;92.10;;;;;;5000378;28;20049;-88
2022/09/03 07:49:31;;;;;;;3.92;1.30;;;19.30;92.40;;;;;;5004008;28;20057;-82
2022/09/03 07:52:17;;;;;;;2.75;1.00;;;19.50;92.00;;;;;;5031546;28;20425;-84
2022/09/03 07:55:04;;;;;;;3.08;1.10;;;19.50;91.50;;;;;;5030919;28;20045;-82
2022/09/03 07:57:58;;;;;;;4.50;0.98;;;19.60;91.20;;;;;;5012775;28;20063;-81
2022/09/03 08:00:46;;;;;;;4.25;1.20;;;19.70;91.40;;;;;;5004322;28;20148;-85
2022/09/03 08:03:32;;;;;;;2.55;1.08;;;19.90;91.20;;;;;;5031126;28;20045;-81
2022/09/03 08:06:20;;;;;;;3.13;1.00;;;20.00;91.00;;;;;;5016536;28;20050;-83
2022/09/03 08:09:10;;;;;;;3.08;1.02;;;20.30;91.00;;;;;;5031510;28;20052;-81
2022/09/03 08:11:56;;;;;;;3.00;1.17;;;20.30;90.60;;;;;;5018302;28;20068;-84
2022/09/03 08:14:42;;;;;;;2.83;1.33;;;20.40;90.10;;;;;;5034604;28;20052;-81
2022/09/03 08:17:28;;;;;;;6.28;1.27;;;20.50;90.00;;;;;;5019132;28;20068;-84
2022/09/03 08:20:15;;;;;;;4.63;1.23;;;20.60;89.90;;;;;;5030761;28;20052;-83
2022/09/03 08:23:03;;;;;;;3.88;1.02;;;20.60;89.60;;;;;;5017135;28;20058;-82
2022/09/03 08:25:58;;;;;;;4.47;0.93;;;20.90;89.90;;;;;;5031152;28;20620;-82
2022/09/03 08:28:48;;;;;;;5.63;1.30;;;21.10;89.10;;;;;;5021752;28;20049;-83
2022/09/03 08:31:35;;;;;;;3.38;0.90;;;21.30;88.70;;;;;;5018533;28;20477;-84
2022/09/03 08:34:22;;;;;;;2.63;0.90;;;21.40;88.20;;;;;;5035355;28;20108;-85
2022/09/03 08:37:09;;;;;;;6.55;1.40;;;21.50;87.50;;;;;;5021740;28;20056;-85
2022/09/03 08:39:55;;;;;;;5.07;1.20;;;21.50;86.70;;;;;;4991442;28;20058;-88
2022/09/03 08:43:05;;;;;;;3.95;1.30;;;21.70;87.80;;;;;;5035961;28;20057;-79
2022/09/03 08:45:52;;;;;;;4.88;1.38;;;22.00;87.30;;;;;;5032296;28;20107;-92
2022/09/03 08:48:38;;;;;;;4.60;1.00;;;22.20;86.80;;;;;;5018732;28;20049;-84
2022/09/03 08:51:28;;;;;;;2.00;0.75;;;22.30;85.10;;;;;;5034114;28;20056;-84
2022/09/03 08:54:15;;;;;;;5.90;1.23;;;22.30;84.70;;;;;;5030577;28;20413;-85
2022/09/03 08:57:02;;;;;;;3.80;1.35;;;22.20;84.30;;;;;;5030213;28;20054;-82
2022/09/03 08:59:53;;;;;;;5.88;1.30;;;22.30;83.50;;;;;;5031081;28;20116;-84
2022/09/03 09:03:17;;;;;;;5.18;1.30;;;22.50;83.70;;;;;;5031229;28;20110;-84
2022/09/03 09:06:06;;;;;;;3.92;1.10;;;22.70;82.10;;;;;;5016333;28;20049;-81
2022/09/03 09:09:16;;;;;;;4.88;1.23;;;22.90;82.40;;;;;;5031417;28;20460;-85
2022/09/03 09:12:11;;;;;;;2.47;1.10;;;23.00;81.60;;;;;;5013328;28;20046;-81
2022/09/03 09:15:43;;;;;;;5.20;1.48;;;23.10;82.20;;;;;;5032466;28;20060;-84
2022/09/03 09:18:32;;;;;;;2.15;1.15;;;23.30;81.10;;;;;;5007018;28;20107;-80
2022/09/03 09:21:26;;;;;;;5.18;0.98;;;23.40;80.20;;;;;;5030931;28;20068;-81
2022/09/03 09:24:22;;;;;;;4.22;0.90;;;23.40;80.50;;;;;;5015825;28;20060;-82
2022/09/03 09:27:08;;;;;;;4.05;1.30;;;23.70;80.50;;;;;;5027383;28;20561;-82
2022/09/03 09:30:03;;;;;;;4.57;1.15;;;23.80;80.20;;;;;;5033096;28;20144;-82
2022/09/03 09:32:49;;;;;;;4.22;0.98;;;24.00;80.00;;;;;;5013694;28;20054;-81
2022/09/03 09:35:40;;;;;;;2.38;0.90;;;24.10;80.10;;;;;;5035460;28;20061;-82
2022/09/03 09:38:29;;;;;;;6.32;1.10;;;24.30;79.20;;;;;;5014176;28;20088;-86
2022/09/03 09:41:15;;;;;;;3.90;1.00;;;24.40;78.30;;;;;;5032136;28;20050;-81
2022/09/03 09:44:04;;;;;;;3.17;0.88;;;24.60;77.20;;;;;;5016282;28;20053;-82
2022/09/03 09:46:50;;;;;;;3.80;0.80;;;24.80;77.00;;;;;;5016440;28;20041;-81
2022/09/03 09:49:51;;;;;;;5.22;1.20;;;25.00;76.50;;;;;;5034025;28;20077;-83
2022/09/03 09:52:40;;;;;;;6.43;1.20;;;25.30;75.80;;;;;;5016367;28;20037;-83
2022/09/03 09:55:27;;;;;;;6.45;1.20;;;25.40;75.50;;;;;;5002861;28;20096;-81
2022/09/03 09:58:13;;;;;;;7.88;1.00;;;25.50;74.60;;;;;;5003578;28;20045;-82
2022/09/03 10:01:14;;;;;;;5.55;1.00;;;25.60;74.50;;;;;;5035417;28;20140;-83
2022/09/03 10:04:09;;;;;;;3.67;0.88;;;25.80;73.30;;;;;;5037593;28;20041;-84
2022/09/03 10:07:24;;;;;;;3.50;0.80;;;25.80;72.80;;;;;;5017596;28;20141;-81
2022/09/03 10:10:22;;;;;;;2.97;0.90;;;26.00;72.20;;;;;;5036321;28;20356;-83
2022/09/03 10:13:16;;;;;;;2.28;0.80;;;25.90;70.30;;;;;;5021457;28;20107;-83
2022/09/03 10:16:39;;;;;;;2.97;0.90;;;26.20;71.90;;;;;;5004049;28;20136;-80
2022/09/03 10:19:40;;;;;;;5.20;0.98;;;26.30;70.60;;;;;;5035671;28;20494;-82
2022/09/03 10:22:26;;;;;;;5.68;1.05;;;26.40;69.30;;;;;;5034766;28;20105;-84
2022/09/03 10:25:15;;;;;;;2.35;0.90;;;26.50;70.20;;;;;;5034011;28;20041;-84
2022/09/03 10:28:02;;;;;;;5.25;1.00;;;26.70;70.20;;;;;;5012921;28;20501;-81
2022/09/03 10:31:14;;;;;;;3.53;0.80;;;26.80;68.00;;;;;;5013537;28;20175;-81
2022/09/03 10:34:23;;;;;;;4.15;0.90;;;27.00;66.30;;;;;;5015478;28;20060;-87
2022/09/03 10:37:46;;;;;;;4.88;1.10;;;26.90;66.50;;;;;;5016368;28;20084;-85
2022/09/03 10:40:56;;;;;;;4.38;0.80;;;27.20;67.00;;;;;;5006090;28;20045;-81
2022/09/03 10:43:50;;;;;;;6.75;0.90;;;27.00;63.80;;;;;;5014640;28;20049;-82
2022/09/03 10:46:49;;;;;;;4.75;1.30;;;26.90;64.80;;;;;;5018017;28;20104;-84
2022/09/03 10:50:22;;;;;;;7.55;1.10;;;27.10;66.30;;;;;;5016052;28;20045;-80
2022/09/03 10:53:27;;;;;;;1.83;0.70;;;27.40;64.20;;;;;;5001276;28;20045;-83
2022/09/03 10:56:16;;;;;;;;;;;27.60;65.30;;;;;;5017777;28;20398;-91
2022/09/03 10:59:26;;;;;;;5.05;1.83;;;27.60;62.50;;;;;;5023861;28;19944;-94
2022/09/03 11:02:43;;;;;;;4.07;0.77;;;27.90;64.30;;;;;;5018230;28;20050;-81
2022/09/03 11:05:41;;;;;;;3.90;1.00;;;28.20;62.50;;;;;;5000932;28;20045;-80
2022/09/03 11:08:35;;;;;;;6.13;1.15;;;28.30;62.20;;;;;;5015299;28;20042;-87
2022/09/03 11:11:34;;;;;;;3.30;0.80;;;28.20;59.00;;;;;;5013688;28;20060;-82
2022/09/03 11:14:43;;;;;;;3.85;0.70;;;28.30;60.50;;;;;;5017253;28;20126;-89
2022/09/03 11:17:38;;;;;;;4.30;0.95;;;28.70;59.30;;;;;;5014378;28;20128;-85
2022/09/03 11:20:24;;;;;;;;;;;28.80;59.10;;;;;;5013394;28;20050;-85
2022/09/03 11:23:14;;;;;;;3.65;1.20;;;29.10;59.50;;;;;;5012332;28;19976;-81
2022/09/03 11:26:11;;;;;;;3.78;0.90;;;29.10;58.00;;;;;;5010720;28;20049;-82
2022/09/03 11:29:01;;;;;;;4.75;0.88;;;29.50;57.50;;;;;;5011739;28;20054;-81
2022/09/03 11:32:15;;;;;;;2.47;0.60;;;29.60;56.00;;;;;;5011562;28;20092;-82
2022/09/03 11:35:12;;;;;;;4.78;0.90;;;29.50;56.50;;;;;;5011679;28;20673;-81
2022/09/03 11:38:05;;;;;;;4.38;1.13;;;29.50;56.30;;;;;;5012432;28;20490;-81
2022/09/03 11:40:57;;;;;;;6.45;0.77;;;29.90;55.10;;;;;;4999752;28;20062;-81
2022/09/03 11:43:44;;;;;;;4.95;0.70;;;29.90;54.10;;;;;;5012525;28;20053;-84
2022/09/03 11:46:31;;;;;;;4.00;0.90;;;29.80;54.60;;;;;;5011561;28;20053;-82
2022/09/03 11:49:28;;;;;;;6.90;0.80;;;30.00;53.60;;;;;;4997296;28;20042;-87
2022/09/03 11:52:26;;;;;;;6.78;0.82;;;30.30;53.40;;;;;;5009630;28;20056;-84
2022/09/03 11:55:29;;;;;;;6.10;0.98;;;30.50;52.30;;;;;;5009958;28;20112;-81
2022/09/03 11:58:25;;;;;;;6.20;0.88;;;30.40;51.40;;;;;;5010651;28;20041;-83
2022/09/03 12:01:14;;;;;;;3.72;0.93;;;30.70;51.60;;;;;;5010941;28;20256;-84
2022/09/03 12:04:05;;;;;;;4.10;0.75;;;31.30;52.00;;;;;;5009376;28;20483;-82
2022/09/03 12:07:12;;;;;;;4.30;1.10;;;31.20;51.60;;;;;;5010790;28;20057;-81
2022/09/03 12:10:13;;;;;;;5.47;0.98;;;31.60;49.80;;;;;;5010710;28;20037;-80
2022/09/03 12:13:42;;;;;;;6.38;0.82;;;31.50;48.30;;;;;;5009242;28;20115;-80
2022/09/03 12:16:44;;;;;;;5.32;0.93;;;31.50;48.40;;;;;;4997166;28;20061;-82
2022/09/03 12:19:49;;;;;;;5.43;0.82;;;31.70;48.00;;;;;;4997064;28;20490;-82
2022/09/03 12:22:37;;;;;;;2.28;0.90;;;31.80;46.90;;;;;;5011237;28;20069;-81
2022/09/03 12:25:23;;;;;;;2.50;0.60;;;32.20;47.40;;;;;;5010715;28;20046;-83
2022/09/03 12:28:15;;;;;;;3.83;0.90;;;32.40;46.30;;;;;;5009784;28;20061;-81
2022/09/03 12:31:11;;;;;;;3.50;0.90;;;33.10;47.20;;;;;;5009897;28;20402;-82
2022/09/03 12:34:10;;;;;;;3.17;0.60;;;33.20;44.50;;;;;;5011008;28;20053;-81
2022/09/03 12:36:57;;;;;;;3.75;1.05;;;33.40;45.60;;;;;;5012947;28;20050;-80
2022/09/03 12:39:50;;;;;;;5.95;1.48;;;33.50;44.50;;;;;;4983526;28;20482;-80
2022/09/03 12:42:37;;;;;;;4.05;0.70;;;33.90;44.10;;;;;;5010529;28;20046;-79
2022/09/03 12:45:25;;;;;;;10.32;1.10;;;34.40;44.10;;;;;;5010166;28;20107;-84
2022/09/03 12:48:15;;;;;;;6.68;0.73;;;34.80;44.00;;;;;;5011792;28;20057;-84
2022/09/03 12:51:02;;;;;;;3.42;0.70;;;34.90;42.80;;;;;;5008729;28;20053;-84
2022/09/03 12:53:51;;;;;;;2.60;0.82;;;35.10;42.30;;;;;;5010788;28;20058;-83
2022/09/03 12:56:39;;;;;;;6.00;0.80;;;35.60;41.90;;;;;;5012789;28;20517;-85
2022/09/03 12:59:30;;;;;;;7.00;1.08;;;35.70;41.00;;;;;;5010093;28;20464;-83
2022/09/03 13:02:31;;;;;;;3.28;0.73;;;35.90;40.50;;;;;;5009391;28;20129;-81
2022/09/03 13:05:21;;;;;;;4.35;0.85;;;36.30;39.50;;;;;;5010793;28;20053;-81
2022/09/03 13:08:13;;;;;;;9.23;1.38;;;36.80;39.20;;;;;;5008725;28;20041;-82
2022/09/03 13:11:03;;;;;;;6.68;1.35;;;37.20;38.80;;;;;;5010050;28;20049;-82
2022/09/03 13:13:54;;;;;;;3.47;0.82;;;37.70;37.70;;;;;;5008778;28;20375;-82
2022/09/03 13:16:43;;;;;;;4.75;1.08;;;38.20;37.60;;;;;;5013026;28;20490;-84
2022/09/03 13:19:50;;;;;;;5.50;0.95;;;38.20;37.70;;;;;;5013734;28;20050;-81
2022/09/03 13:23:14;;;;;;;2.78;0.93;;;38.80;36.70;;;;;;5014576;28;20046;-81
2022/09/03 13:26:18;;;;;;;3.42;0.80;;;39.00;35.60;;;;;;5016123;28;20124;-84
2022/09/03 13:29:23;;;;;;;4.43;0.95;;;39.70;35.80;;;;;;5015819;28;20081;-83
2022/09/03 13:32:49;;;;;;;4.00;0.77;;;40.00;35.10;;;;;;5013666;28;20049;-83
2022/09/03 13:36:14;;;;;;;3.60;0.77;;;39.80;34.20;;;;;;5008926;28;20054;-81
2022/09/03 13:39:17;;;;;;;2.70;0.68;;;38.70;33.30;;;;;;4998688;28;20081;-84
2022/09/03 13:42:18;;;;;;;4.70;0.70;;;39.00;34.10;;;;;;5013833;28;20520;-82
2022/09/03 13:45:28;;;;;;;2.50;0.90;;;39.10;33.70;;;;;;4999440;28;20095;-85
2022/09/03 13:51:35;;;;;;;4.85;0.80;;;39.20;33.60;;;;;;5013371;28;20061;-88
2022/09/03 13:54:36;;;;;;;1.52;0.70;;;39.30;33.70;;;;;;5012765;28;20053;-83
2022/09/03 13:58:03;;;;;;;2.65;0.82;;;39.50;32.80;;;;;;5013441;28;20100;-82
2022/09/03 14:01:05;;;;;;;1.83;0.57;;;40.10;33.10;;;;;;5015211;28;20053;-82
2022/09/03 14:04:01;;;;;;;2.42;0.55;;;41.00;33.20;;;;;;5020560;28;20041;-88
2022/09/03 14:07:12;;;;;;;2.92;0.70;;;41.50;32.40;;;;;;5019675;28;20049;-81
2022/09/03 14:10:16;;;;;;;3.25;0.90;;;41.30;31.50;;;;;;5015958;28;20056;-81
2022/09/03 14:13:26;;;;;;;2.50;0.50;;;41.30;32.40;;;;;;5015839;28;20050;-81
2022/09/03 14:16:13;;;;;;;4.43;0.65;;;41.20;31.40;;;;;;5014009;28;20069;-79
2022/09/03 14:19:34;;;;;;;3.67;0.65;;;41.50;32.60;;;;;;5012679;28;20050;-81
2022/09/03 14:22:25;;;;;;;4.45;0.80;;;41.30;32.50;;;;;;5012886;28;20045;-86
2022/09/03 14:25:20;;;;;;;2.33;0.57;;;41.70;32.30;;;;;;5013435;28;20046;-87
2022/09/03 14:28:19;;;;;;;5.53;0.90;;;41.90;32.00;;;;;;5023668;28;20057;-87
2022/09/03 14:31:40;;;;;;;2.33;0.70;;;41.50;31.40;;;;;;5017532;28;20045;-87
2022/09/03 14:34:30;;;;;;;3.35;1.02;;;41.90;31.50;;;;;;5032173;28;20406;-83
2022/09/03 14:38:08;;;;;;;2.08;0.50;;;41.60;31.40;;;;;;5015898;28;20053;-85
2022/09/03 14:41:12;;;;;;;3.50;0.80;;;41.40;30.80;;;;;;4939086;28;20055;-88
2022/09/03 14:44:17;;;;;;;;;;;41.20;31.00;;;;;;5034745;28;20599;-81
2022/09/03 14:47:09;;;;;;;5.45;0.80;;;41.10;31.70;;;;;;5033653;28;20361;-84
2022/09/03 14:50:04;;;;;;;2.63;0.60;;;41.80;31.10;;;;;;5018885;28;20049;-80
2022/09/03 14:53:24;;;;;;;4.60;0.60;;;42.20;31.50;;;;;;5008524;28;20058;-86
2022/09/03 14:56:37;;;;;;;4.30;0.80;;;42.10;30.40;;;;;;5005924;28;20060;-83
2022/09/03 14:59:51;;;;;;;6.68;0.70;;;42.10;31.30;;;;;;5013626;28;20139;-84
2022/09/03 15:02:52;;;;;;;5.80;0.70;;;41.70;30.90;;;;;;5033320;28;20048;-84
2022/09/03 15:05:50;;;;;;;1.77;0.60;;;41.60;31.30;;;;;;5032043;28;20421;-81
2022/09/03 15:08:58;;;;;;;4.97;1.20;;;41.90;30.90;;;;;;5019791;28;20053;-86